Date,TemperatureHighF,TemperatureAvgF,TemperatureLowF,DewpointHighF,DewpointAvgF,DewpointLowF,HumidityHigh,HumidityAvg,HumidityLow,PressureMaxIn,PressureMinIn,WindSpeedMaxMPH,WindSpeedAvgMPH,GustSpeedMaxMPH,PrecipitationSumIn
2013-1-1,41.0,32.8,27.9,35.9,29.4,25.1,90,87,80,30.43,30.27,3,0,3,0.01
2013-1-2,45.0,34.0,26.3,38.0,28.5,23.4,90,81,63,30.27,30.12,6,0,6,0.02
2013-1-3,44.8,34.5,25.0,34.2,27.7,21.3,87,77,60,30.12,30.04,9,0,9,0.11
2013-1-4,50.0,42.3,37.4,45.8,39.0,33.5,91,88,83,30.25,30.08,7,1,7,0.09
2013-1-5,45.2,41.6,39.6,38.5,36.8,35.1,89,83,74,30.12,30.03,9,1,9,0.08
2013-1-6,46.6,41.9,38.3,41.6,38.5,35.6,90,88,82,30.11,29.91,9,1,9,0.27
2013-1-7,49.9,46.1,40.9,46.8,42.9,37.7,92,89,83,30.08,29.74,12,2,12,0.26
2013-1-8,52.6,47.0,42.1,48.7,43.6,38.6,92,88,83,30.08,29.66,17,2,17,0.59
2013-1-9,50.0,39.8,34.6,47.3,37.1,31.9,91,90,87,29.89,29.65,13,1,13,1.37
2013-1-10,38.9,34.5,31.1,36.2,32.1,28.7,92,91,89,30.04,29.87,3,0,3,0.12
2013-1-11,33.8,29.4,26.3,30.9,26.9,23.5,91,90,89,30.27,30.03,3,0,3,0.01
2013-1-12,37.4,28.4,24.7,33.3,25.0,21.3,90,87,78,30.38,30.24,4,0,4,0.00
2013-1-13,36.4,28.4,21.1,30.8,24.5,17.5,88,85,78,30.44,30.36,3,0,3,0.01
2013-1-14,36.4,33.7,31.3,33.1,30.5,28.1,89,88,86,30.47,30.40,1,0,1,0.00
2013-1-15,43.6,35.7,28.8,37.6,31.5,25.4,91,85,71,30.61,30.47,6,0,6,0.01
2013-1-16,42.3,32.3,25.9,36.6,28.4,22.9,88,86,79,30.58,30.42,3,0,3,0.00
2013-1-17,37.8,32.1,27.9,34.8,29.4,24.9,91,89,87,30.43,30.20,3,0,3,0.01
2013-1-18,35.6,30.6,28.4,32.9,28.2,26.1,92,91,89,30.24,30.17,2,0,2,0.00
2013-1-19,34.6,31.1,28.1,31.6,28.5,25.6,91,90,88,30.32,30.25,2,0,2,0.00
2013-1-20,37.6,31.9,29.5,34.4,29.2,26.9,91,89,87,30.34,30.20,3,0,3,0.00
2013-1-21,34.9,31.5,27.9,32.3,29.1,25.7,92,91,89,30.20,30.08,2,0,2,0.01
2013-1-22,38.5,32.4,26.6,35.4,29.5,23.9,91,89,86,30.09,29.85,2,0,2,0.00
2013-1-23,42.1,38.9,34.6,39.7,36.0,31.9,91,89,87,30.08,29.78,7,0,7,0.28
2013-1-24,48.6,42.6,37.1,43.3,39.0,34.1,91,87,77,30.15,29.99,5,1,5,0.21
2013-1-25,50.6,43.6,37.6,47.1,41.1,34.9,93,91,86,30.00,29.87,3,0,3,0.19
2013-1-26,46.1,41.8,38.5,42.9,39.1,35.8,92,90,87,29.99,29.81,6,1,6,0.34
2013-1-27,42.8,41.2,40.0,39.5,38.4,37.3,91,90,88,30.00,29.94,10,1,10,0.12
2013-1-28,42.5,40.8,37.8,40.1,38.5,35.4,93,91,90,30.03,29.96,5,1,5,0.51
2013-1-29,47.9,44.2,41.6,45.8,42.2,39.4,93,92,91,30.29,30.02,7,1,7,0.78
2013-1-30,49.3,47.3,44.8,47.1,45.2,42.7,94,93,92,30.32,30.27,6,0,6,0.29
2013-1-31,50.6,47.8,46.3,47.4,45.4,44.4,94,91,87,30.32,30.24,5,1,5,0.14
2013-2-1,53.8,46.1,40.5,50.1,43.2,37.6,94,90,78,30.34,30.26,3,0,3,0.01
2013-2-2,43.6,40.5,37.4,40.7,38.1,35.3,93,91,88,30.31,30.20,5,0,5,0.00
2013-2-3,50.0,44.0,38.5,46.3,41.2,36.1,93,90,84,30.25,30.15,5,1,5,0.11
2013-2-4,52.9,46.8,43.7,46.3,43.1,41.2,91,87,75,30.15,29.83,4,0,4,0.00
2013-2-5,52.2,46.5,43.9,46.4,42.7,40.6,91,86,78,29.88,29.79,12,1,12,0.25
2013-2-6,50.4,45.1,43.6,42.8,40.5,39.4,88,84,73,29.99,29.73,10,2,10,0.04
2013-2-7,52.4,44.5,32.8,42.2,37.7,28.4,86,77,62,30.12,29.73,10,2,10,0.12
2013-2-8,47.0,38.2,30.4,41.1,33.5,27.3,89,83,74,30.23,30.12,4,0,4,0.01
2013-2-9,45.2,41.9,38.9,41.3,38.5,35.5,90,88,85,30.27,30.19,3,0,3,0.05
2013-2-10,47.7,40.6,34.9,42.1,37.0,32.5,91,87,78,30.32,30.25,4,0,4,0.01
2013-2-11,48.6,43.2,38.3,42.9,38.9,35.1,90,85,76,30.29,30.25,4,0,4,0.01
2013-2-12,49.1,46.1,42.5,46.2,42.9,38.7,91,88,85,30.33,30.22,10,1,10,0.07
2013-2-13,48.6,45.4,43.9,44.4,42.6,41.2,92,90,85,30.43,30.24,6,0,6,0.13
2013-2-14,44.3,44.3,44.1,41.9,41.7,41.4,91,90,90,30.43,30.41,4,1,4,0.01
2013-2-18,40.3,39.7,39.2,35.7,35.3,34.8,85,84,83,29.72,29.70,2,0,2,0.00
2013-2-19,51.7,42.0,33.7,42.7,34.8,28.8,89,76,56,29.94,29.66,10,0,10,0.00
2013-2-20,46.6,39.7,33.5,40.0,35.2,28.8,88,84,76,29.98,29.92,8,0,8,0.05
2013-2-21,43.9,42.2,40.0,39.5,38.3,36.4,89,86,82,30.00,29.94,13,2,13,0.07
2013-2-22,46.4,42.8,40.0,42.0,38.4,34.1,88,84,80,29.98,29.63,16,4,16,0.14
2013-2-23,50.9,43.2,39.2,41.3,36.9,34.6,85,79,64,30.30,29.83,8,2,8,0.00
2013-2-24,48.1,44.4,40.9,39.8,37.3,35.5,82,76,71,30.30,29.89,13,2,13,0.00
2013-2-25,51.8,43.7,36.4,41.3,36.9,30.8,85,77,61,30.23,29.82,14,2,14,0.10
2013-2-26,49.5,42.0,32.4,39.4,33.7,27.8,87,73,60,30.28,30.13,9,1,9,0.01
2013-2-27,53.3,45.6,39.2,45.3,39.8,34.8,88,80,68,30.24,30.13,8,1,8,0.39
2013-2-28,52.2,46.9,42.8,49.3,43.8,39.5,91,89,88,30.26,30.12,10,1,10,0.26
2013-3-1,57.6,53.8,51.1,51.5,49.5,47.0,92,85,79,30.30,30.20,14,2,14,0.07
2013-3-2,59.0,49.9,39.2,50.9,44.5,35.6,87,82,70,30.20,29.99,13,2,13,0.41
2013-3-3,51.1,41.2,32.0,44.0,34.6,27.6,91,78,49,30.21,30.10,8,1,8,0.01
2013-3-4,54.4,40.5,28.8,38.5,30.1,25.1,89,69,41,30.21,29.84,8,1,8,0.00
2013-3-5,55.1,46.2,40.3,37.8,33.2,27.3,78,61,50,29.84,29.64,7,0,7,0.00
2013-3-6,45.4,42.0,38.9,41.1,37.6,33.8,87,84,78,29.82,29.50,5,0,5,0.51
2013-3-7,52.4,44.1,36.4,46.3,39.8,32.8,89,85,76,30.02,29.82,4,0,4,0.34
2013-3-8,53.5,41.0,31.9,45.2,35.4,29.1,90,81,63,30.16,29.99,7,0,7,0.01
2013-3-9,55.8,42.3,30.8,44.1,35.2,27.7,88,77,58,30.42,30.16,7,0,7,0.00
2013-3-10,50.9,42.7,34.6,43.5,37.5,30.2,87,82,73,30.42,30.35,5,0,5,0.01
2013-3-11,55.1,47.8,40.0,45.7,42.2,36.8,90,81,68,30.36,30.08,7,0,7,0.05
2013-3-12,55.4,52.4,47.5,48.6,47.3,43.2,87,83,75,30.08,29.98,16,4,16,0.00
2013-3-13,52.2,51.9,51.7,47.5,47.4,47.1,85,84,84,30.06,30.02,16,5,16,0.00
2013-3-14,49.3,49.1,49.0,45.5,45.2,44.9,88,86,85,30.09,30.04,4,1,4,0.02
2013-3-15,61.4,53.5,49.0,52.7,48.0,44.7,89,82,70,30.14,30.06,8,2,8,0.00
2013-3-16,52.0,48.7,38.9,45.9,43.1,33.8,85,81,72,30.06,29.82,14,3,14,0.03
2013-3-17,51.5,40.9,37.1,39.9,35.4,32.7,86,81,61,30.14,29.92,8,1,8,0.17
2013-3-18,52.4,43.3,36.4,43.1,36.6,30.8,88,77,61,30.19,30.04,13,2,13,0.10
2013-3-19,56.9,38.0,33.1,39.7,32.0,29.0,87,80,43,30.17,29.55,12,1,12,0.17
2013-3-20,56.0,50.3,44.3,49.0,44.7,38.8,90,81,70,29.60,29.36,18,5,18,0.58
2013-3-21,40.1,36.6,35.3,35.6,32.5,31.2,86,86,84,30.15,30.10,2,0,2,0.01
2013-3-22,46.1,36.3,32.4,37.5,31.8,27.0,88,84,59,30.29,30.14,4,0,4,0.16
2013-3-23,52.0,39.8,30.6,38.5,29.9,26.0,86,69,47,30.32,30.22,2,0,2,0.00
2013-3-24,57.1,42.0,29.5,37.9,28.9,24.5,84,61,42,30.22,30.07,7,1,7,0.00
2013-3-25,62.3,42.9,31.9,38.0,29.5,25.4,78,62,35,30.07,29.89,6,0,6,0.00
2013-3-26,61.4,51.4,42.8,44.1,37.7,33.0,72,60,45,29.96,29.90,3,1,3,0.00
2013-3-27,61.6,48.8,43.0,46.7,41.2,36.6,83,75,58,29.94,29.87,2,0,2,0.02
2013-3-28,64.1,48.4,41.4,51.8,41.4,36.7,88,78,55,30.10,29.93,6,0,6,0.01
2013-3-29,67.3,58.8,40.9,52.7,46.1,35.7,86,64,49,30.21,30.10,7,1,7,0.01
2013-3-30,46.4,42.8,40.0,39.3,37.4,35.5,85,81,76,30.20,30.19,1,0,1,0.00
2013-3-31,72.0,62.6,50.4,48.2,45.6,43.7,78,57,40,29.98,29.87,4,2,4,0.00
2013-4-1,63.4,54.5,43.9,51.4,45.7,38.9,85,72,62,30.09,29.94,5,1,5,0.00
2013-4-2,58.1,54.2,49.7,49.1,46.8,44.1,83,76,71,30.15,30.09,6,1,6,0.00
2013-4-3,67.0,56.2,45.5,51.6,46.1,41.4,88,70,50,30.13,29.91,7,0,7,0.00
2013-4-4,58.5,53.4,49.0,54.0,48.2,43.5,86,83,73,29.91,29.60,9,1,9,0.32
2013-4-5,62.3,54.3,49.3,53.1,48.9,45.1,90,82,69,29.83,29.69,16,3,16,0.41
2013-4-6,55.1,49.5,45.4,48.3,44.7,41.4,88,84,75,29.89,29.66,16,3,16,0.37
2013-4-7,49.7,45.6,41.4,45.5,41.7,38.1,89,86,83,29.84,29.45,7,1,7,0.89
2013-4-8,58.5,48.3,43.0,51.3,43.8,39.9,91,85,73,30.22,29.84,5,1,5,0.18
2013-4-9,57.8,50.1,41.4,48.8,43.4,37.8,91,78,65,30.29,30.13,7,1,7,0.00
2013-4-10,57.8,51.6,47.5,52.7,46.5,42.8,88,83,76,30.19,29.89,14,2,14,0.38
2013-4-11,54.4,48.3,43.4,45.9,41.4,36.2,89,77,64,30.22,30.11,8,1,8,0.18
2013-4-12,51.1,44.1,38.9,43.7,38.9,35.0,89,82,72,30.11,29.60,12,1,12,0.23
2013-4-13,51.1,42.5,36.4,44.5,38.0,32.8,90,84,76,29.92,29.70,13,2,13,0.57
2013-4-14,56.2,46.4,39.2,45.8,38.8,34.7,90,76,50,29.94,29.85,9,1,9,0.11
2013-4-15,58.0,45.7,37.8,45.0,38.4,33.4,87,76,54,30.10,29.88,11,1,11,0.16
2013-4-16,58.0,45.5,32.8,47.3,37.3,29.4,90,74,55,30.32,30.10,9,1,9,0.03
2013-4-17,63.9,50.1,34.2,47.4,38.2,29.8,86,66,40,30.39,30.32,8,1,8,0.00
2013-4-18,52.6,48.7,45.0,45.6,41.7,36.9,86,77,71,30.40,30.15,8,1,8,0.01
2013-4-19,58.1,52.1,49.3,53.7,48.3,45.1,89,87,83,30.15,30.01,16,2,16,0.49
2013-4-20,56.3,50.7,47.5,50.1,46.3,43.8,88,85,78,30.22,30.14,8,1,8,0.41
2013-4-21,54.4,48.2,41.2,48.8,43.5,36.3,89,84,65,30.31,30.18,6,0,6,0.29
2013-4-22,60.7,47.7,34.4,48.3,34.8,26.7,90,65,30,30.47,30.31,8,1,8,0.00
2013-4-23,63.7,50.0,33.5,45.5,34.8,28.3,83,59,29,30.37,30.19,10,1,10,0.00
2013-4-24,70.9,59.4,39.8,49.1,36.9,31.7,77,46,28,30.25,30.03,8,1,8,0.00
2013-4-25,72.4,58.2,39.4,47.3,40.6,32.5,79,54,35,30.10,29.99,8,1,8,0.00
2013-4-26,70.2,57.9,43.4,53.7,45.7,37.0,82,65,50,30.21,30.10,6,1,6,0.00
2013-4-27,55.6,53.8,51.7,48.7,44.4,40.1,80,71,59,30.18,30.10,10,2,10,0.12
2013-4-28,60.5,52.6,47.2,50.6,45.0,41.2,86,76,60,30.17,29.93,11,2,11,0.18
2013-4-29,58.0,49.9,43.6,45.4,40.3,36.0,86,71,45,30.12,29.86,11,1,11,0.27
2013-4-30,43.4,41.3,38.5,36.9,34.4,30.0,83,77,64,30.38,30.11,5,1,6,0.16
2013-5-1,65.3,50.6,32.2,43.3,34.4,26.8,82,57,32,30.53,30.38,7,1,7,0.00
2013-5-2,73.1,56.9,40.0,49.4,40.3,33.5,80,56,34,30.49,30.33,8,1,8,0.00
2013-5-3,70.2,54.3,40.7,50.0,41.7,33.9,80,64,45,30.35,30.18,7,1,7,0.00
2013-5-4,79.2,59.0,43.6,53.7,43.8,37.8,83,61,25,30.18,29.96,9,1,9,0.00
2013-5-5,83.5,66.8,46.6,53.5,46.4,40.1,80,50,26,29.96,29.76,3,1,3,0.00
2013-5-6,88.2,70.3,49.1,54.8,47.7,41.9,78,49,25,29.81,29.73,7,1,7,0.00
2013-5-7,71.5,61.9,51.8,55.0,49.8,43.6,79,65,53,29.96,29.78,10,1,10,0.00
2013-5-8,66.2,58.3,51.8,53.7,50.0,45.5,82,74,63,30.09,29.96,6,1,6,0.00
2013-5-9,72.4,59.2,48.2,58.8,51.0,43.7,87,75,56,30.17,30.07,7,1,7,0.00
2013-5-10,81.2,66.3,47.2,60.5,52.3,42.6,86,63,44,30.15,30.07,6,1,6,0.00
2013-5-11,83.9,69.0,54.9,58.8,52.8,47.4,79,58,41,30.13,29.95,10,1,10,0.00
2013-5-12,74.9,65.3,59.0,61.0,55.6,49.2,83,72,53,30.06,29.97,12,2,12,0.15
2013-5-13,70.0,60.2,55.6,60.1,54.0,50.2,86,80,66,29.99,29.88,15,2,15,0.16
2013-5-14,54.4,52.0,49.3,41.3,40.5,39.3,69,65,61,30.06,30.05,1,0,1,0.00
2013-5-15,71.3,59.1,44.1,51.0,45.8,37.5,81,63,42,30.06,29.97,8,1,8,0.07
2013-5-16,72.0,62.1,52.9,57.6,51.4,47.8,86,70,51,29.97,29.82,8,1,8,0.01
2013-5-17,64.1,58.5,53.6,53.6,50.1,46.8,83,74,63,30.01,29.91,7,2,7,0.04
2013-5-18,65.3,57.6,52.2,51.2,48.2,45.5,79,71,58,30.21,30.01,11,1,11,0.03
2013-5-19,66.1,58.2,50.9,53.5,49.1,44.1,84,72,59,30.35,30.21,8,0,8,0.00
2013-5-20,70.0,57.9,44.8,55.1,47.5,40.1,85,70,49,30.30,29.85,8,1,8,0.00
2013-5-21,61.9,53.1,47.7,50.9,45.5,42.3,84,76,62,29.85,29.73,9,1,9,0.32
2013-5-22,56.5,49.4,45.0,49.0,44.0,40.8,85,82,75,29.87,29.80,4,1,6,0.19
2013-5-23,64.6,52.4,45.4,51.5,45.4,41.4,88,78,57,29.95,29.86,12,1,12,0.10
2013-5-24,66.6,55.6,45.4,53.7,46.6,41.7,88,73,53,29.99,29.90,8,1,8,0.00
2013-5-25,68.0,58.4,50.8,52.7,47.3,45.3,82,68,50,29.98,29.91,9,1,9,0.00
2013-5-26,68.8,58.4,50.8,56.3,50.4,44.8,86,75,61,29.93,29.88,9,1,9,0.07
2013-5-27,63.0,57.2,50.8,55.4,51.7,46.5,87,82,76,29.91,29.66,8,1,8,0.20
2013-5-28,66.6,58.1,52.6,55.3,51.1,48.6,88,78,62,29.83,29.71,9,2,9,0.03
2013-5-29,62.3,55.2,50.9,54.0,49.3,46.6,87,81,69,29.92,29.62,9,1,9,0.10
2013-5-30,67.0,57.4,49.0,51.8,47.3,43.8,84,70,54,30.19,29.92,12,3,12,0.00
2013-5-31,70.6,58.8,50.8,53.4,47.4,42.5,83,67,46,30.29,30.19,6,1,6,0.00
2013-6-1,74.5,64.0,49.7,56.7,48.3,42.0,82,59,38,30.19,30.01,6,1,6,0.00
2013-6-2,70.9,59.8,54.4,54.4,49.4,45.9,82,69,49,30.05,30.00,6,1,6,0.03
2013-6-3,72.9,62.2,47.5,55.4,50.5,41.9,84,67,50,30.07,30.02,8,1,8,0.00
2013-6-4,81.2,67.8,49.3,60.1,52.3,44.0,84,60,41,30.08,29.99,8,1,8,0.00
2013-6-5,80.3,68.8,51.3,60.0,53.7,43.5,78,60,47,30.05,30.00,8,1,8,0.00
2013-6-6,81.4,72.0,52.2,61.3,52.9,43.2,81,52,38,30.01,29.97,8,1,8,0.00
2013-6-7,71.5,62.4,54.2,53.6,47.7,42.9,73,59,45,30.11,29.99,9,1,9,0.00
2013-6-8,72.0,60.9,53.3,54.5,48.8,45.0,76,65,51,30.14,30.06,6,1,6,0.00
2013-6-9,71.5,60.3,51.5,52.6,47.6,43.7,79,64,47,30.07,29.98,6,1,6,0.00
2013-6-10,73.8,65.9,57.2,52.5,48.5,45.4,67,54,38,29.96,29.84,8,1,8,0.00
2013-6-11,67.0,59.1,53.1,52.7,46.9,43.7,72,64,52,30.06,29.90,12,2,12,0.08
2013-6-12,53.6,53.0,52.4,45.5,44.3,43.5,74,72,69,30.07,30.05,7,2,7,0.00
2013-6-13,69.1,63.5,55.3,54.5,49.7,46.3,73,61,47,30.17,30.12,6,1,6,0.00
2013-6-14,68.8,60.5,54.4,52.7,48.6,45.6,76,65,52,30.18,30.01,9,2,9,0.00
2013-6-15,67.1,56.9,49.0,53.9,47.8,42.8,80,72,62,30.01,29.93,1,0,1,0.00
2013-6-16,78.1,66.2,52.9,61.0,54.8,47.0,82,68,49,30.05,29.96,9,1,9,0.13
2013-6-17,77.6,66.4,53.6,59.9,53.5,48.9,86,66,43,30.05,29.85,10,1,10,0.09
2013-6-18,74.9,65.7,55.8,58.6,51.6,45.5,85,63,39,29.95,29.84,8,1,8,0.00
2013-6-19,67.9,61.3,55.8,55.6,51.2,47.0,76,70,60,29.97,29.87,7,2,7,0.01
2013-6-20,62.6,57.3,54.0,55.4,51.3,48.4,88,81,70,30.06,29.91,8,1,8,1.02
2013-6-21,71.8,61.7,53.8,58.8,53.5,49.7,89,76,57,30.12,30.06,6,1,6,0.00
2013-6-22,77.9,67.0,50.8,60.0,53.4,46.5,86,64,42,30.08,29.82,8,1,8,0.00
2013-6-23,73.8,66.7,59.9,62.6,58.3,53.0,85,75,62,29.82,29.56,5,0,5,0.14
2013-6-24,70.2,64.0,59.8,60.9,56.8,52.8,88,78,65,29.66,29.53,9,1,9,0.10
2013-6-25,76.5,64.3,56.7,62.6,56.3,52.4,88,76,52,29.82,29.63,15,1,15,0.52
2013-6-26,75.6,64.9,56.2,64.9,58.1,51.7,90,79,61,30.04,29.80,8,1,8,0.22
2013-6-27,75.8,66.8,59.9,65.1,60.5,56.2,89,81,67,30.16,30.00,5,0,5,0.07
2013-6-28,88.9,75.4,61.0,69.5,63.4,57.5,90,69,45,30.15,30.01,10,1,10,0.00
2013-6-29,86.4,75.6,65.0,65.9,62.3,57.9,82,65,47,30.08,29.97,4,1,7,0.00
2013-6-30,92.2,75.2,60.3,69.8,61.8,54.4,82,65,42,29.99,29.86,6,1,6,0.00
2013-7-1,89.6,82.9,70.4,67.3,63.8,57.9,66,53,45,29.99,29.91,7,1,7,0.00
2013-7-2,84.2,72.5,61.7,65.1,56.5,50.0,77,59,39,30.08,29.99,9,1,9,0.00
2013-7-3,79.2,68.8,59.2,57.1,51.1,45.2,65,54,41,30.11,30.01,6,1,8,0.00
2013-7-4,74.7,64.6,56.3,57.3,52.1,46.7,74,64,52,30.08,29.98,8,1,8,0.01
2013-7-5,77.6,66.6,56.5,60.1,54.2,49.3,80,65,49,29.99,29.91,7,1,7,0.00
2013-7-6,80.3,69.0,53.8,61.8,55.2,48.3,83,63,46,29.93,29.83,8,1,8,0.00
2013-7-7,78.8,69.8,56.0,62.1,56.6,49.3,80,64,52,29.91,29.85,9,1,9,0.00
2013-7-8,79.9,68.9,58.9,61.3,56.5,51.7,78,65,50,30.05,29.90,8,1,8,0.00
2013-7-9,87.1,72.6,56.5,65.0,56.7,50.1,84,60,38,30.06,29.98,10,1,10,0.00
2013-7-10,76.0,66.4,55.3,60.1,53.7,47.6,78,64,55,30.02,29.91,7,1,7,0.00
2013-7-11,57.4,56.9,56.3,48.1,47.4,47.1,72,71,70,29.97,29.95,5,0,5,0.00
2013-7-13,76.5,70.3,58.7,52.9,49.8,47.3,66,49,39,30.09,30.07,9,1,9,0.00
2013-7-14,83.2,68.5,49.0,59.1,50.0,42.7,82,54,32,30.09,29.96,9,1,9,0.00
2013-7-15,80.3,68.5,51.8,57.4,50.5,43.8,78,54,37,30.01,29.87,10,1,10,0.00
2013-7-16,88.4,73.8,54.5,60.7,54.2,46.4,77,53,33,29.88,29.78,7,1,7,0.00
2013-7-17,75.1,67.9,60.3,59.8,56.8,52.2,77,68,58,30.14,29.86,13,2,13,0.02
2013-7-18,79.9,67.5,57.8,62.2,56.4,51.1,82,69,52,30.18,30.08,8,1,8,0.00
2013-7-19,82.1,67.1,53.6,63.9,56.5,48.0,83,70,52,30.12,30.00,9,1,9,0.00
2013-7-20,77.4,65.3,54.5,62.3,56.3,49.4,86,73,58,30.03,29.91,8,1,8,0.00
2013-7-21,76.0,66.0,56.9,61.9,56.9,51.6,84,73,59,29.92,29.86,6,1,6,0.00
2013-7-22,78.5,67.2,58.9,63.4,57.6,53.9,84,72,56,30.01,29.89,7,1,7,0.00
2013-7-23,86.0,72.0,55.8,64.4,56.8,50.7,87,61,38,30.01,29.93,7,1,8,0.00
2013-7-24,86.6,72.8,55.4,62.4,54.6,47.6,81,55,37,30.01,29.96,8,1,8,0.00
2013-7-25,85.7,71.3,52.2,59.3,51.8,44.6,78,53,31,30.06,29.99,9,1,9,0.00
2013-7-26,86.2,70.5,52.7,59.6,50.7,42.8,79,52,28,30.11,30.04,9,1,9,0.00
2013-7-27,79.4,68.2,52.4,56.8,51.0,43.7,76,55,42,30.11,29.96,8,1,8,0.00
2013-7-28,73.3,63.6,51.7,56.9,51.9,45.0,82,66,55,29.97,29.91,11,2,11,0.00
2013-7-29,75.1,65.3,57.6,57.8,53.8,49.3,76,67,54,29.95,29.90,5,1,5,0.00
2013-7-30,78.5,68.1,54.5,60.8,55.9,49.1,84,66,50,30.08,29.95,8,1,8,0.00
2013-7-31,73.4,63.9,56.5,61.8,56.7,50.8,87,78,65,30.06,29.94,10,0,10,0.07
2013-8-1,67.7,62.8,58.0,58.4,56.0,53.3,87,79,70,30.02,29.98,8,2,8,0.00
2013-8-2,62.6,60.8,59.0,58.1,55.9,53.5,90,84,76,30.07,30.00,8,1,8,0.33
2013-8-3,75.2,66.1,59.6,63.4,59.4,55.4,91,80,64,30.07,30.00,5,0,5,0.00
2013-8-4,81.2,69.6,55.8,65.8,59.1,51.7,88,71,53,30.01,29.90,8,1,8,0.00
2013-8-5,86.2,73.1,56.7,65.8,58.6,51.8,87,63,41,29.97,29.89,8,1,8,0.00
2013-8-6,86.6,72.5,54.2,63.3,55.6,47.8,83,58,35,29.96,29.88,9,1,9,0.00
2013-8-7,86.2,72.1,54.4,62.8,55.4,47.8,83,58,37,29.97,29.91,8,1,8,0.00
2013-8-8,83.2,70.7,57.2,63.0,56.9,50.8,81,63,48,29.99,29.91,7,1,7,0.00
2013-8-9,86.9,72.3,56.0,63.5,56.9,49.5,80,60,44,29.92,29.81,7,1,7,0.00
2013-8-10,79.6,70.8,62.8,64.9,61.3,57.5,84,72,59,29.98,29.85,7,1,10,0.12
2013-8-11,79.6,69.6,59.8,62.6,57.6,53.6,82,67,48,30.02,29.95,7,1,7,0.03
2013-8-12,79.6,68.4,58.3,61.7,56.1,51.8,81,66,50,30.03,29.96,7,1,7,0.00
2013-8-13,82.3,70.2,57.4,60.9,55.8,51.7,83,62,40,30.04,29.89,6,1,7,0.00
2013-8-14,63.5,60.7,58.5,53.5,52.5,51.7,79,74,70,29.91,29.89,1,0,1,0.00
2013-8-15,73.3,70.5,65.9,66.1,64.6,62.2,88,82,76,29.96,29.90,4,1,5,0.09
2013-8-16,85.3,73.4,64.8,70.8,61.9,54.8,91,70,40,29.98,29.91,8,1,8,0.00
2013-8-17,81.2,70.7,62.3,63.6,58.5,54.5,79,66,53,30.03,29.96,8,1,8,0.00
2013-8-18,81.4,69.7,60.5,62.8,57.1,51.5,82,65,50,30.07,30.02,10,1,10,0.00
2013-8-19,81.0,67.9,59.6,61.3,55.2,50.2,77,65,49,30.07,30.02,9,1,9,0.00
2013-8-20,77.2,67.6,57.6,58.8,52.3,47.5,76,59,45,30.11,30.02,10,1,10,0.00
2013-8-21,81.0,67.4,50.0,60.1,52.6,44.4,85,61,44,30.04,29.90,9,1,9,0.00
2013-8-22,87.5,71.3,54.4,63.0,55.8,48.0,81,60,39,29.91,29.77,5,0,5,0.00
2013-8-23,76.7,67.9,62.5,60.9,56.6,54.2,76,68,55,29.85,29.78,10,2,10,0.00
2013-8-24,78.7,67.8,59.9,60.9,55.9,50.5,81,67,45,29.87,29.81,7,1,7,0.00
2013-8-25,78.3,65.3,52.0,60.1,54.8,46.7,84,70,51,29.89,29.82,6,0,6,0.00
2013-8-26,79.2,67.3,59.4,62.9,57.7,54.5,85,72,49,29.91,29.81,9,1,9,0.03
2013-8-27,83.0,71.1,61.2,65.0,59.7,55.8,86,69,48,29.91,29.75,8,1,8,0.02
2013-8-28,81.5,70.6,60.7,68.8,61.2,55.6,87,73,55,29.85,29.77,6,1,6,0.19
2013-8-29,75.4,68.1,64.6,67.7,63.0,60.2,89,84,74,29.97,29.82,5,1,5,0.60
2013-8-30,79.6,69.4,60.1,65.3,59.3,52.9,89,72,48,30.11,29.97,9,1,9,0.00
2013-8-31,81.4,67.4,52.2,62.8,56.0,47.8,87,69,49,30.04,29.80,8,1,8,0.00
2013-9-1,81.7,69.9,56.3,64.3,58.0,51.2,86,67,51,29.84,29.77,7,1,7,0.00
2013-9-2,83.5,71.4,58.7,65.1,58.0,53.1,83,64,47,29.91,29.83,8,1,8,0.00
2013-9-3,74.9,66.1,60.5,65.8,59.5,55.1,88,80,67,29.97,29.90,7,0,7,0.16
2013-9-4,70.7,63.4,57.6,62.4,58.4,53.7,90,84,74,30.00,29.93,5,0,5,0.01
2013-9-5,73.1,64.6,58.7,64.7,59.1,55.4,92,83,71,29.99,29.87,7,1,7,0.05
2013-9-6,73.8,65.0,61.0,65.9,60.3,57.3,90,85,73,30.05,29.89,7,1,7,0.87
2013-9-7,75.2,65.6,60.1,64.9,59.8,55.6,90,82,66,30.05,29.96,8,0,8,0.00
2013-9-8,79.2,65.2,56.9,65.9,59.0,52.9,91,81,61,30.06,29.98,6,0,6,0.00
2013-9-9,78.8,65.7,57.2,66.6,59.0,53.7,90,80,62,30.01,29.93,6,1,6,0.00
2013-9-10,77.8,65.9,57.2,65.2,59.4,53.1,91,80,64,29.94,29.84,8,1,8,0.00
2013-9-11,92.3,73.6,56.0,70.2,61.4,52.3,90,69,40,29.89,29.84,6,1,6,0.00
2013-9-12,68.0,64.6,62.3,59.7,58.1,56.5,82,79,75,29.90,29.89,2,0,2,0.00
2013-9-14,70.9,66.3,60.3,62.9,60.2,56.3,87,81,76,29.76,29.68,3,0,3,0.00
2013-9-15,70.2,63.5,59.9,64.3,59.6,56.3,90,87,80,29.77,29.65,8,1,8,0.19
2013-9-16,70.9,62.8,57.8,62.0,58.0,53.9,89,85,73,29.87,29.76,8,1,10,0.12
2013-9-17,64.3,59.3,55.6,56.3,53.9,51.5,90,83,73,29.87,29.80,5,0,5,0.00
2013-9-18,71.5,59.7,51.5,59.2,52.2,47.1,91,77,59,30.02,29.87,6,1,6,0.00
2013-9-19,80.5,62.2,45.4,58.8,49.7,41.4,88,66,39,29.99,29.71,9,1,9,0.00
2013-9-20,78.7,62.6,48.6,59.8,51.5,43.7,84,69,47,29.71,29.55,8,1,8,0.02
2013-9-21,72.2,62.8,58.0,59.4,54.2,49.9,86,74,56,29.67,29.60,8,1,8,0.00
2013-9-22,62.3,58.6,55.6,55.7,52.1,49.5,84,79,66,29.69,29.52,16,3,16,0.27
2013-9-23,64.1,57.5,52.0,55.6,51.4,47.9,86,80,72,29.91,29.68,13,3,13,0.30
2013-9-24,66.4,56.1,49.9,55.0,48.9,45.8,90,78,57,29.90,29.77,9,1,9,0.01
2013-9-25,59.4,52.8,45.5,51.5,47.5,41.3,88,82,70,29.97,29.79,5,0,5,0.03
2013-9-26,62.6,50.7,41.2,52.2,44.7,37.6,90,80,65,30.07,29.96,6,0,6,0.01
2013-9-27,57.2,53.7,47.2,52.1,49.0,42.9,87,84,81,30.06,29.78,8,1,8,0.06
2013-9-28,61.6,56.3,51.8,57.5,52.6,48.3,91,88,83,29.79,29.30,16,2,16,1.23
2013-9-29,56.0,53.7,51.7,50.6,49.1,47.5,88,84,79,29.52,29.13,15,4,15,0.59
2013-9-30,59.4,52.5,48.4,53.9,47.7,44.0,89,84,78,29.86,29.38,16,4,16,0.20
2013-10-1,58.9,52.0,47.5,50.8,46.1,42.9,87,80,69,30.05,29.84,12,3,12,0.08
2013-10-2,56.5,52.4,49.5,50.4,47.2,45.6,88,83,77,30.11,29.99,8,1,8,0.72
2013-10-3,59.8,51.9,45.0,51.5,47.1,41.4,90,84,73,30.39,30.11,5,0,5,0.03
2013-10-4,64.8,50.4,38.2,52.4,43.6,34.9,89,78,57,30.42,30.28,5,0,5,0.00
2013-10-5,70.2,54.5,41.8,54.4,45.3,38.0,88,73,47,30.29,30.06,5,0,5,0.00
2013-10-6,75.6,56.7,41.8,57.4,46.4,37.5,88,70,44,30.06,29.84,7,1,7,0.00
2013-10-7,62.6,55.5,52.6,52.2,48.6,46.1,85,78,64,29.95,29.85,13,3,13,0.14
2013-10-8,57.2,51.8,42.8,49.7,45.7,38.6,85,80,72,30.01,29.90,8,1,8,0.02
2013-10-9,58.3,47.4,39.4,46.9,41.4,35.6,86,80,65,30.04,29.90,2,0,2,0.00
2013-10-10,60.8,52.5,45.4,51.5,46.4,41.1,87,80,68,30.01,29.87,4,0,4,0.04
2013-10-11,57.2,52.2,47.7,52.4,47.9,44.0,89,86,80,30.08,30.00,5,0,5,0.02
2013-10-12,59.4,50.7,43.6,50.6,45.7,39.6,90,83,68,30.15,30.00,7,0,7,0.07
2013-10-13,55.8,46.9,40.3,48.8,42.5,36.7,90,85,76,30.30,30.15,3,0,3,0.01
2013-10-14,59.0,46.1,36.9,51.7,41.4,33.3,91,84,68,30.35,30.29,5,0,5,0.00
2013-10-15,62.1,49.2,38.9,52.4,43.8,35.6,89,82,65,30.32,30.11,4,0,4,0.01
2013-10-16,53.5,49.4,44.3,48.2,45.5,41.0,91,86,82,30.14,30.08,6,0,6,0.00
2013-10-17,56.0,49.4,43.2,50.1,45.2,39.4,88,86,79,30.21,30.14,4,0,4,0.00
2013-10-18,60.5,48.1,41.0,52.9,44.1,38.1,91,86,76,30.18,30.08,3,0,3,0.01
2013-10-19,52.7,47.8,43.2,49.0,44.7,39.6,91,89,86,30.13,30.07,2,0,2,0.00
2013-10-20,50.4,47.6,45.7,46.6,44.8,43.3,91,90,87,30.15,30.09,4,0,4,0.01
2013-10-21,52.7,48.0,45.4,48.6,45.2,43.1,92,90,86,30.11,30.04,4,0,4,0.01
2013-10-22,55.4,48.8,45.5,51.0,46.0,43.1,93,90,83,30.05,29.97,4,0,4,0.01
2013-10-23,58.9,48.5,42.8,53.2,45.2,40.3,92,88,81,29.99,29.91,3,0,3,0.00
2013-10-24,53.3,47.7,43.6,49.5,44.9,41.1,92,90,86,30.06,29.96,3,0,3,0.01
2013-10-25,53.3,49.4,45.0,49.1,46.3,42.3,91,89,86,30.25,30.06,5,0,5,0.01
2013-10-26,52.4,49.1,45.0,47.9,45.5,42.6,91,87,81,30.27,30.12,4,0,4,0.00
2013-10-27,54.7,48.4,42.1,50.4,45.0,39.2,91,88,85,30.13,29.85,6,0,6,0.10
2013-10-28,58.7,46.5,38.0,50.9,39.7,32.8,91,78,50,29.89,29.83,8,0,8,0.01
2013-10-29,57.2,42.7,32.0,45.0,35.8,28.4,87,77,58,29.98,29.88,4,0,4,0.00
2013-10-30,57.6,45.9,34.2,47.5,39.6,29.8,87,79,69,30.07,29.96,7,1,7,0.01
2013-10-31,54.9,51.2,48.4,50.2,46.5,43.1,89,84,76,30.20,30.03,6,1,7,0.03
2013-11-1,62.3,53.7,47.3,54.0,48.9,44.0,91,84,71,30.20,29.78,3,0,3,0.00
2013-11-2,53.5,52.3,51.5,49.7,49.0,47.3,90,89,86,29.79,29.44,20,1,20,0.45
2013-11-3,45.2,40.8,38.3,40.3,37.0,34.7,88,86,83,30.04,30.00,1,0,1,0.00
2013-11-4,50.6,42.2,33.3,42.9,36.5,29.9,89,81,63,30.13,29.99,3,0,3,0.09
2013-11-5,55.1,47.5,43.4,49.5,43.5,39.1,90,86,78,30.19,29.96,10,1,10,0.19
2013-11-6,51.8,47.5,43.0,47.4,43.9,39.9,90,87,82,30.25,29.96,6,0,6,0.07
2013-11-7,49.1,49.0,49.0,45.1,44.8,44.7,86,86,85,29.96,29.94,7,2,7,0.02
2013-11-8,54.0,48.6,42.3,47.6,43.9,38.7,89,84,76,30.10,30.04,8,1,8,0.00
2013-11-9,52.0,45.4,37.1,46.1,41.5,33.9,90,86,78,30.09,30.00,3,0,3,0.09
2013-11-10,49.7,46.9,44.6,45.9,43.9,42.2,91,89,85,30.09,30.02,2,0,2,0.02
2013-11-11,58.3,50.1,40.5,51.5,43.9,38.1,92,80,63,30.09,29.93,8,1,11,0.00
2013-11-12,58.7,51.6,46.8,54.8,47.3,41.2,90,85,67,30.30,29.96,8,1,8,0.13
2013-11-13,54.9,51.0,48.1,48.8,47.1,44.4,90,87,79,30.33,30.24,8,1,8,0.00
2013-11-14,52.0,47.4,43.9,48.3,44.2,40.8,91,89,85,30.24,29.99,4,0,4,0.07
2013-11-15,47.0,44.9,42.1,44.6,41.8,39.4,91,89,85,29.99,29.26,20,3,20,0.67
2013-11-16,49.1,44.5,40.7,43.8,40.1,37.8,91,85,76,29.71,29.29,10,2,10,0.02
2013-11-17,52.6,47.6,43.4,46.9,42.8,38.4,87,84,80,29.84,29.70,14,3,14,0.01
2013-11-18,52.0,49.6,47.0,49.4,46.7,43.7,91,89,87,29.84,29.50,9,1,9,0.61
2013-11-19,53.3,44.8,36.9,50.4,40.0,26.5,91,84,62,29.99,29.49,13,1,13,0.18
2013-11-20,41.6,34.8,28.6,33.3,27.7,23.8,86,76,58,30.43,29.99,5,0,6,0.00
2013-11-21,42.1,32.0,26.1,34.5,25.9,22.0,86,78,60,30.60,30.42,4,0,4,0.01
2013-11-22,45.7,33.8,26.3,34.8,27.1,21.9,85,77,57,30.57,30.37,4,0,4,0.00
2013-11-23,50.0,36.9,28.1,38.9,30.4,23.9,87,78,62,30.36,30.11,4,0,4,0.01
2013-11-24,52.0,38.4,30.1,41.3,32.5,26.4,87,80,63,30.19,30.08,4,0,4,0.00
2013-11-25,54.2,40.2,31.1,43.8,34.5,27.4,88,80,68,30.25,30.18,2,0,2,0.01
2013-11-26,50.0,40.2,31.5,42.6,35.6,27.8,88,83,74,30.20,30.03,2,0,2,0.00
2013-11-27,54.9,45.0,36.0,44.8,39.0,31.9,86,80,66,30.03,29.90,4,0,4,0.00
2013-11-28,51.8,39.0,31.3,43.5,34.4,27.9,87,83,72,30.10,29.95,2,0,2,0.01
2013-11-29,47.3,40.8,35.1,44.2,37.5,31.2,90,88,86,30.23,30.09,2,0,2,0.00
2013-11-30,50.8,47.3,45.0,46.4,43.9,42.3,90,88,82,30.25,30.03,5,1,5,0.14
2013-12-1,53.3,50.7,42.1,50.0,46.9,37.7,91,87,83,30.03,29.69,15,3,15,0.09
2013-12-2,45.2,39.4,36.2,38.8,35.0,32.6,90,84,71,29.98,29.76,6,1,6,0.14
2013-12-3,39.1,33.8,27.0,33.3,27.5,22.5,88,78,59,30.24,29.98,5,0,5,0.00
2013-12-4,37.8,28.9,23.2,30.4,23.4,19.1,85,80,68,30.28,30.21,2,0,2,0.01
2013-12-5,33.7,26.9,21.2,26.6,21.1,16.8,84,79,70,30.24,30.12,6,0,6,0.00
2013-12-6,32.8,25.4,18.7,20.7,14.1,8.8,78,62,48,30.15,30.08,8,1,8,0.00
2013-12-7,30.2,20.6,14.2,19.7,10.5,7.0,74,65,51,30.35,30.14,4,0,4,0.00
2013-12-8,32.8,23.2,13.7,20.3,14.3,6.8,77,69,51,30.49,30.33,3,0,3,0.00
2013-12-9,32.8,26.9,17.6,24.0,19.6,11.7,79,74,68,30.50,30.40,4,0,4,0.00
2013-12-10,32.0,31.5,31.1,24.7,24.0,23.5,74,74,73,30.40,30.39,0,0,0,0.00
2013-12-13,47.0,45.2,41.6,44.6,42.6,38.7,91,90,90,30.35,30.22,4,0,4,0.08
2013-12-14,47.0,44.6,41.6,43.7,41.7,38.7,91,89,87,30.36,30.26,5,1,5,0.00
2013-12-15,50.6,47.9,46.8,46.8,44.8,43.4,91,89,85,30.39,30.25,7,1,7,0.09
2013-12-16,47.0,43.5,38.9,44.4,40.9,36.2,92,90,88,30.43,30.20,2,0,2,0.00
2013-12-17,43.0,40.4,38.2,40.4,37.9,35.6,92,91,90,30.20,30.04,4,0,4,0.02
2013-12-18,44.8,40.9,30.2,41.7,37.8,27.2,92,88,79,30.08,29.96,6,0,6,0.12
2013-12-19,38.5,31.5,26.6,34.1,28.3,23.6,90,88,82,30.26,30.07,0,0,0,0.01
2013-12-20,38.2,35.6,31.3,35.7,32.9,28.5,91,90,88,30.13,29.66,5,0,5,0.51
2013-12-21,43.7,40.7,38.0,41.1,38.3,35.6,92,91,90,30.11,29.77,1,0,1,0.33
2013-12-22,49.0,46.8,43.6,47.0,44.5,40.9,93,92,91,30.24,30.09,9,1,9,0.51
2013-12-23,53.5,48.0,42.1,49.2,45.3,39.7,92,90,84,30.44,30.05,17,2,17,0.20
2013-12-24,47.9,40.1,35.3,44.2,37.3,32.8,92,90,81,30.55,30.44,3,0,3,0.01
2013-12-25,38.2,34.2,32.0,35.5,31.8,29.5,92,91,89,30.47,30.32,4,0,4,0.01
2013-12-26,44.1,36.2,32.0,41.2,33.7,29.8,92,90,88,30.32,30.13,2,0,2,0.00
2013-12-27,43.9,38.2,32.2,42.0,36.2,30.0,93,92,91,30.30,30.04,6,0,6,0.07
2013-12-28,49.3,42.4,37.6,46.5,40.0,34.9,93,91,88,30.46,30.30,2,0,2,0.01
2013-12-29,43.4,40.0,37.8,40.5,37.6,35.4,93,91,89,30.41,30.24,3,0,3,0.01
2013-12-30,43.6,39.7,35.5,41.2,37.5,33.0,93,92,91,30.25,30.06,5,0,5,0.02
2013-12-31,47.2,43.3,38.7,45.0,41.0,36.3,92,92,90,30.29,30.11,4,0,4,0.03
2014-1-1,45.0,39.5,32.8,42.6,37.1,30.7,92,91,89,30.32,30.16,2,0,2,0.00
2014-1-2,47.2,43.4,40.7,44.6,41.3,38.5,93,92,90,30.16,29.82,8,1,8,0.50